Terminal Aerodrome Forecast
Issued by NWS

Home | Current Version | Previous Version | Text Only | Print | Product List | Glossary Off
Versions: 1 2 3 4 5 6 7 8 9 10 11 12 13 14 15 16

000
FTUS43 KICT 231138
TAFCNU
TAF
KCNU 231138Z 2312/2412 16009KT P6SM SCT040 BKN120
     FM231400 17013KT P6SM VCTS BKN035CB
     FM231700 17012G24KT P6SM BKN035
     FM232200 16011KT P6SM BKN040
     FM240500 17012G24KT P6SM BKN025=

USA.gov is the U.S. government's official web portal to all federal, state and local government web resources and services.